createdAt,value
2023-01-17T00:00:01.613Z,81.89
2023-01-17T00:02:30.997Z,82.26
2023-01-17T00:05:17.040Z,82.44
2023-01-17T00:08:03.390Z,82.61
2023-01-17T00:10:31.199Z,83.00
2023-01-17T00:13:03.585Z,83.16
2023-01-17T00:15:31.936Z,83.31
2023-01-17T00:17:59.588Z,83.51
2023-01-17T00:20:49.912Z,82.60
2023-01-17T00:23:42.841Z,82.46
2023-01-17T00:26:19.289Z,82.17
2023-01-17T00:28:49.012Z,82.68
2023-01-17T00:31:17.619Z,82.93
2023-01-17T00:33:45.341Z,82.99
2023-01-17T00:36:13.179Z,83.09
2023-01-17T00:38:41.242Z,82.45
2023-01-17T00:41:14.638Z,82.80
2023-01-17T00:44:00.527Z,82.48
2023-01-17T00:46:46.698Z,82.20
2023-01-17T00:49:32.875Z,82.42
2023-01-17T00:52:19.955Z,82.55
2023-01-17T00:55:06.088Z,82.79
2023-01-17T00:57:52.184Z,82.98
2023-01-17T01:00:38.362Z,83.36
2023-01-17T01:03:29.815Z,83.01
2023-01-17T01:06:15.922Z,83.31
2023-01-17T01:09:01.697Z,83.24
2023-01-17T01:11:47.501Z,83.47
2023-01-17T01:14:33.359Z,83.43
2023-01-17T01:17:19.372Z,83.42
2023-01-17T01:20:05.255Z,83.41
2023-01-17T01:22:51.386Z,83.52
2023-01-17T01:25:37.428Z,83.83
2023-01-17T01:28:32.557Z,83.90
2023-01-17T01:31:23.641Z,84.10
2023-01-17T01:33:53.179Z,84.17
2023-01-17T01:36:21.453Z,84.08
2023-01-17T01:38:50.288Z,84.04
2023-01-17T01:41:18.321Z,84.00
2023-01-17T01:43:54.343Z,83.97
2023-01-17T01:46:41.264Z,84.11
2023-01-17T01:49:24.788Z,83.99
2023-01-17T01:52:00.622Z,83.98
2023-01-17T01:54:57.327Z,83.99
2023-01-17T01:57:32.049Z,83.86
2023-01-17T02:00:15.767Z,83.94
2023-01-17T02:02:46.803Z,83.78
2023-01-17T02:05:18.028Z,83.60
2023-01-17T02:08:03.473Z,83.45
2023-01-17T02:10:34.956Z,83.08
2023-01-17T02:13:03.681Z,82.89
2023-01-17T02:16:18.873Z,82.71
2023-01-17T02:18:53.967Z,82.61
2023-01-17T02:21:34.186Z,82.37
2023-01-17T02:24:43.698Z,82.42
2023-01-17T02:27:32.326Z,82.59
2023-01-17T02:30:32.832Z,82.77
2023-01-17T02:33:14.889Z,82.92
2023-01-17T02:36:10.185Z,82.83
2023-01-17T02:39:02.849Z,82.81
2023-01-17T02:41:37.205Z,82.92
2023-01-17T02:44:05.265Z,83.26
2023-01-17T02:46:32.739Z,83.44
2023-01-17T02:49:00.598Z,83.50
2023-01-17T02:52:26.590Z,83.54
2023-01-17T02:55:24.473Z,83.87
2023-01-17T02:58:00.973Z,83.84
2023-01-17T03:01:10.248Z,83.79
2023-01-17T03:03:52.031Z,83.79
2023-01-17T03:06:47.990Z,83.76
2023-01-17T03:09:17.908Z,83.76
2023-01-17T03:11:45.976Z,83.81
2023-01-17T03:14:13.321Z,83.84
2023-01-17T03:16:40.968Z,83.89
2023-01-17T03:19:09.877Z,84.23
2023-01-17T03:21:37.346Z,84.40
2023-01-17T03:24:04.942Z,84.38
2023-01-17T03:26:32.263Z,84.39
2023-01-17T03:28:59.614Z,84.38
2023-01-17T03:31:26.944Z,84.44
2023-01-17T03:33:54.332Z,84.52
2023-01-17T03:36:21.721Z,84.48
2023-01-17T03:38:49.041Z,84.44
2023-01-17T03:41:16.584Z,84.44
2023-01-17T03:43:43.891Z,84.34
2023-01-17T03:46:28.628Z,84.49
2023-01-17T03:48:56.003Z,84.50
2023-01-17T03:51:23.687Z,84.46
2023-01-17T03:53:51.986Z,84.85
2023-01-17T03:56:19.861Z,85.43
2023-01-17T03:58:47.246Z,85.71
2023-01-17T04:01:14.808Z,85.80
2023-01-17T04:03:42.334Z,86.20
2023-01-17T04:06:09.697Z,86.43
2023-01-17T04:08:37.139Z,86.77
2023-01-17T04:11:04.689Z,87.63
2023-01-17T04:13:32.027Z,88.09
2023-01-17T04:15:59.762Z,88.44
2023-01-17T04:18:27.709Z,88.33
2023-01-17T04:20:55.060Z,88.48
2023-01-17T04:23:22.491Z,88.60
2023-01-17T04:25:49.803Z,88.97
2023-01-17T04:28:17.176Z,89.18
2023-01-17T04:30:44.562Z,89.20
2023-01-17T04:33:11.930Z,89.37
2023-01-17T04:35:39.520Z,89.30
2023-01-17T04:38:06.891Z,89.63
2023-01-17T04:40:34.245Z,89.69
2023-01-17T04:43:01.686Z,89.72
2023-01-17T04:45:29.067Z,89.87
2023-01-17T04:47:56.346Z,90.13
2023-01-17T04:50:23.818Z,90.07
2023-01-17T04:52:51.170Z,89.98
2023-01-17T04:55:18.846Z,90.01
2023-01-17T04:57:48.021Z,89.92
2023-01-17T05:00:16.218Z,89.93
2023-01-17T05:02:43.621Z,89.88
2023-01-17T05:05:11.218Z,90.00
2023-01-17T05:07:38.689Z,90.01
2023-01-17T05:10:06.648Z,90.24
2023-01-17T05:12:34.023Z,90.40
2023-01-17T05:15:01.928Z,90.74
2023-01-17T05:17:29.273Z,90.74
2023-01-17T05:19:56.629Z,91.08
2023-01-17T05:22:23.920Z,91.27
2023-01-17T05:24:51.253Z,91.36
2023-01-17T05:27:18.556Z,91.42
2023-01-17T05:29:45.960Z,91.44
2023-01-17T05:32:13.434Z,91.37
2023-01-17T05:34:40.795Z,91.45
2023-01-17T05:37:08.161Z,91.42
2023-01-17T05:39:35.508Z,91.31
2023-01-17T05:42:02.866Z,91.53
2023-01-17T05:44:30.269Z,91.63
2023-01-17T05:46:57.629Z,91.72
2023-01-17T05:49:25.043Z,91.82
2023-01-17T05:51:54.787Z,92.09
2023-01-17T05:54:22.276Z,92.12
2023-01-17T05:56:49.629Z,92.14
2023-01-17T05:59:20.549Z,92.19
2023-01-17T06:01:54.352Z,92.16
2023-01-17T06:04:21.761Z,92.06
2023-01-17T06:06:49.075Z,91.94
2023-01-17T06:09:16.450Z,91.87
2023-01-17T06:11:43.893Z,91.76
2023-01-17T06:14:11.216Z,91.74
2023-01-17T06:16:38.579Z,91.72
2023-01-17T06:19:05.911Z,91.69
2023-01-17T06:21:33.325Z,91.66
2023-01-17T06:24:02.226Z,91.61
2023-01-17T06:26:30.568Z,91.61
2023-01-17T06:28:57.936Z,91.65
2023-01-17T06:31:25.328Z,91.65
2023-01-17T06:33:52.732Z,91.67
2023-01-17T06:36:20.046Z,91.61
2023-01-17T06:38:51.368Z,91.59
2023-01-17T06:41:18.717Z,91.47
2023-01-17T06:43:46.003Z,91.43
2023-01-17T06:46:13.346Z,91.35
2023-01-17T06:48:43.686Z,91.12
2023-01-17T06:51:11.193Z,91.06
2023-01-17T06:53:40.274Z,90.89
2023-01-17T06:56:08.913Z,90.46
2023-01-17T06:58:36.583Z,90.25
2023-01-17T07:01:09.330Z,87.00
2023-01-17T07:03:37.085Z,82.40
2023-01-17T07:06:05.904Z,81.82
2023-01-17T07:08:33.115Z,83.02
2023-01-17T07:11:05.091Z,84.26
2023-01-17T07:13:38.247Z,85.72
2023-01-17T07:16:07.712Z,86.65
2023-01-17T07:18:35.573Z,87.35
2023-01-17T07:21:02.975Z,87.73
2023-01-17T07:23:30.331Z,88.16
2023-01-17T07:26:00.319Z,88.27
2023-01-17T07:28:28.659Z,88.35
2023-01-17T07:30:56.277Z,88.37
2023-01-17T07:33:23.711Z,88.42
2023-01-17T07:35:51.382Z,88.48
2023-01-17T07:38:20.242Z,88.40
2023-01-17T07:40:47.614Z,88.61
2023-01-17T07:43:15.170Z,88.74
2023-01-17T07:45:51.725Z,88.78
2023-01-17T07:48:22.331Z,88.71
2023-01-17T07:50:58.057Z,88.75
2023-01-17T07:53:28.813Z,88.76
2023-01-17T07:56:05.141Z,88.70
2023-01-17T07:58:34.405Z,88.59
2023-01-17T08:01:08.882Z,88.53
2023-01-17T08:03:40.029Z,87.88
2023-01-17T08:06:13.804Z,87.67
2023-01-17T08:08:41.392Z,86.85
2023-01-17T08:11:08.769Z,85.08
2023-01-17T08:13:36.141Z,85.02
2023-01-17T08:16:04.068Z,85.21
2023-01-17T08:18:31.558Z,85.71
2023-01-17T08:20:58.936Z,86.46
2023-01-17T08:23:27.264Z,86.82
2023-01-17T08:26:00.187Z,86.90
2023-01-17T08:28:27.665Z,86.89
2023-01-17T08:30:55.136Z,82.89
2023-01-17T08:33:22.604Z,81.32
2023-01-17T08:35:54.350Z,79.42
2023-01-17T08:38:23.772Z,79.08
2023-01-17T08:40:51.182Z,78.01
2023-01-17T08:43:18.647Z,76.44
2023-01-17T08:45:48.341Z,71.69
2023-01-17T08:48:16.001Z,71.33
2023-01-17T08:50:43.360Z,70.19
2023-01-17T08:53:10.921Z,68.79
2023-01-17T08:55:40.965Z,67.94
2023-01-17T08:58:08.662Z,65.91
2023-01-17T09:00:35.992Z,65.57
2023-01-17T09:03:03.394Z,62.03
2023-01-17T09:05:31.155Z,63.20
2023-01-17T09:07:58.511Z,60.38
2023-01-17T09:10:27.096Z,60.69
2023-01-17T09:12:54.426Z,58.91
2023-01-17T09:15:22.039Z,59.35
2023-01-17T09:17:49.324Z,62.15
2023-01-17T09:20:17.496Z,63.31
2023-01-17T09:22:46.127Z,62.62
2023-01-17T09:25:13.589Z,61.86
2023-01-17T09:27:46.303Z,61.58
2023-01-17T09:30:14.515Z,58.11
2023-01-17T09:32:41.857Z,59.58
2023-01-17T09:35:10.099Z,58.86
2023-01-17T09:37:37.492Z,57.99
2023-01-17T09:40:06.223Z,60.44
2023-01-17T09:42:40.960Z,61.05
2023-01-17T09:45:18.987Z,61.30
2023-01-17T09:47:52.098Z,61.74
2023-01-17T09:50:53.208Z,61.80
2023-01-17T09:53:21.479Z,62.89
2023-01-17T09:55:57.448Z,63.88
2023-01-17T09:59:01.669Z,65.23
2023-01-17T10:01:38.163Z,66.93
2023-01-17T10:04:49.061Z,67.40
2023-01-17T10:07:22.354Z,69.00
2023-01-17T10:10:20.530Z,69.14
2023-01-17T10:13:01.507Z,68.86
2023-01-17T10:16:13.198Z,67.34
2023-01-17T10:18:46.473Z,66.10
2023-01-17T10:21:35.753Z,67.91
2023-01-17T10:25:15.972Z,69.51
2023-01-17T10:28:05.405Z,69.38
2023-01-17T10:30:38.972Z,69.88
2023-01-17T10:33:19.928Z,67.86
2023-01-17T10:36:07.621Z,66.82
2023-01-17T10:38:38.644Z,63.70
2023-01-17T10:41:21.557Z,64.60
2023-01-17T10:44:21.125Z,65.38
2023-01-17T10:46:56.036Z,65.49
2023-01-17T10:49:27.078Z,65.29
2023-01-17T10:52:04.198Z,65.22
2023-01-17T10:55:04.970Z,64.14
2023-01-17T10:57:45.265Z,65.45
2023-01-17T11:00:51.308Z,66.56
2023-01-17T11:03:24.417Z,66.51
2023-01-17T11:06:21.468Z,65.79
2023-01-17T11:08:51.928Z,65.32
2023-01-17T11:11:24.599Z,63.79
2023-01-17T11:13:55.291Z,64.52
2023-01-17T11:16:27.712Z,63.21
2023-01-17T11:19:30.620Z,64.16
2023-01-17T11:22:05.630Z,63.41
2023-01-17T11:24:49.369Z,63.04
2023-01-17T11:27:56.834Z,63.66
2023-01-17T11:30:29.342Z,62.68
2023-01-17T11:33:08.781Z,63.16
2023-01-17T11:35:43.911Z,63.51
2023-01-17T11:38:19.474Z,62.49
2023-01-17T11:40:49.581Z,62.73
2023-01-17T11:43:26.360Z,62.25
2023-01-17T11:46:02.887Z,62.38
2023-01-17T11:48:38.928Z,62.02
2023-01-17T11:51:26.731Z,62.47
2023-01-17T11:54:08.337Z,62.14
2023-01-17T11:56:37.352Z,62.19
2023-01-17T11:59:35.237Z,62.93
2023-01-17T12:02:37.170Z,62.75
2023-01-17T12:05:32.463Z,63.67
2023-01-17T12:08:17.631Z,64.07
2023-01-17T12:11:00.279Z,64.40
2023-01-17T12:14:03.282Z,65.06
2023-01-17T12:16:54.011Z,65.00
2023-01-17T12:19:43.620Z,64.83
2023-01-17T12:22:29.911Z,64.55
2023-01-17T12:25:03.140Z,63.78
2023-01-17T12:28:04.236Z,64.85
2023-01-17T12:30:55.248Z,65.53
2023-01-17T12:33:38.744Z,66.03
2023-01-17T12:36:19.224Z,66.10
2023-01-17T12:38:48.607Z,66.66
2023-01-17T12:41:31.441Z,67.54
2023-01-17T12:44:02.291Z,67.97
2023-01-17T12:46:49.397Z,67.81
2023-01-17T12:49:33.423Z,68.22
2023-01-17T12:52:23.682Z,68.49
2023-01-17T12:55:01.244Z,68.75
2023-01-17T12:57:43.911Z,68.64
2023-01-17T13:00:23.072Z,68.73
2023-01-17T13:03:04.539Z,68.80
2023-01-17T13:05:45.943Z,68.62
2023-01-17T13:08:50.451Z,68.70
2023-01-17T13:11:30.259Z,68.97
2023-01-17T13:13:59.807Z,69.00
2023-01-17T13:16:48.256Z,69.78
2023-01-17T13:19:40.877Z,70.29
2023-01-17T13:22:21.822Z,70.20
2023-01-17T13:25:26.831Z,71.01
2023-01-17T13:28:36.056Z,70.65
2023-01-17T13:31:26.782Z,70.74
2023-01-17T13:34:36.135Z,70.92
2023-01-17T13:37:30.713Z,70.92
2023-01-17T13:40:43.597Z,71.49
2023-01-17T13:43:21.819Z,71.79
2023-01-17T13:45:56.584Z,71.90
2023-01-17T13:48:26.684Z,71.78
2023-01-17T13:50:57.474Z,71.83
2023-01-17T13:53:33.994Z,71.26
2023-01-17T13:56:10.164Z,70.30
2023-01-17T13:58:50.397Z,69.74
2023-01-17T14:01:24.142Z,69.24
2023-01-17T14:03:54.757Z,69.34
2023-01-17T14:06:44.797Z,69.01
2023-01-17T14:09:42.430Z,68.92
2023-01-17T14:12:14.233Z,68.84
2023-01-17T14:14:41.778Z,68.93
2023-01-17T14:17:28.182Z,68.49
2023-01-17T14:20:25.594Z,68.27
2023-01-17T14:22:56.024Z,67.82
2023-01-17T14:25:28.703Z,67.29
2023-01-17T14:28:02.574Z,67.57
2023-01-17T14:30:39.577Z,67.40
2023-01-17T14:33:30.015Z,66.66
2023-01-17T14:36:03.268Z,66.79
2023-01-17T14:38:33.547Z,66.96
2023-01-17T14:41:07.564Z,67.00
2023-01-17T14:43:40.763Z,66.91
2023-01-17T14:46:23.031Z,67.10
2023-01-17T14:48:58.605Z,67.08
2023-01-17T14:51:26.179Z,67.19
2023-01-17T14:53:55.854Z,67.67
2023-01-17T14:56:26.099Z,67.54
2023-01-17T14:59:16.908Z,67.80
2023-01-17T15:02:06.347Z,67.84
2023-01-17T15:04:39.345Z,67.61
2023-01-17T15:07:15.816Z,67.32
2023-01-17T15:09:44.714Z,67.55
2023-01-17T15:12:16.685Z,67.44
2023-01-17T15:14:46.647Z,67.53
2023-01-17T15:17:26.192Z,67.31
2023-01-17T15:20:17.203Z,67.41
2023-01-17T15:22:45.197Z,67.39
2023-01-17T15:25:14.262Z,67.14
2023-01-17T15:27:42.884Z,66.74
2023-01-17T15:30:15.607Z,66.59
2023-01-17T15:32:47.895Z,65.76
2023-01-17T15:35:20.252Z,65.93
2023-01-17T15:37:54.245Z,66.07
2023-01-17T15:40:25.540Z,64.69
2023-01-17T15:43:01.049Z,64.67
2023-01-17T15:45:33.334Z,65.49
2023-01-17T15:48:45.730Z,65.51
2023-01-17T15:51:13.662Z,65.41
2023-01-17T15:53:42.973Z,65.89
2023-01-17T15:56:33.260Z,65.61
2023-01-17T15:59:36.289Z,66.15
2023-01-17T16:02:03.917Z,63.90
2023-01-17T16:04:37.264Z,64.54
2023-01-17T16:07:34.194Z,63.77
2023-01-17T16:10:17.670Z,64.40
2023-01-17T16:12:46.686Z,63.48
2023-01-17T16:15:17.560Z,62.85
2023-01-17T16:17:49.957Z,62.62
2023-01-17T16:20:25.397Z,62.40
2023-01-17T16:22:53.078Z,62.48
2023-01-17T16:25:23.433Z,61.78
2023-01-17T16:27:52.473Z,61.70
2023-01-17T16:30:24.188Z,60.23
2023-01-17T16:32:52.213Z,59.80
2023-01-17T16:35:23.272Z,59.64
2023-01-17T16:37:53.117Z,59.71
2023-01-17T16:40:24.177Z,59.75
2023-01-17T16:42:51.959Z,59.46
2023-01-17T16:45:19.530Z,60.01
2023-01-17T16:47:48.124Z,60.58
2023-01-17T16:50:20.317Z,59.75
2023-01-17T16:52:52.367Z,60.52
2023-01-17T16:55:24.276Z,59.23
2023-01-17T16:57:56.396Z,59.43
2023-01-17T17:00:24.705Z,59.43
2023-01-17T17:02:53.604Z,59.31
2023-01-17T17:05:20.991Z,59.30
2023-01-17T17:07:50.864Z,59.24
2023-01-17T17:10:21.940Z,59.05
2023-01-17T17:12:49.350Z,59.17
2023-01-17T17:15:16.718Z,59.37
2023-01-17T17:17:44.095Z,59.65
2023-01-17T17:20:14.743Z,59.95
2023-01-17T17:22:48.881Z,59.61
2023-01-17T17:25:16.741Z,59.89
2023-01-17T17:27:44.091Z,60.42
2023-01-17T17:30:12.728Z,60.13
2023-01-17T17:32:40.148Z,60.74
2023-01-17T17:35:08.107Z,60.67
2023-01-17T17:37:35.517Z,60.66
2023-01-17T17:40:04.481Z,60.19
2023-01-17T17:42:32.014Z,59.18
2023-01-17T17:44:59.383Z,59.51
2023-01-17T17:47:26.829Z,58.36
2023-01-17T17:49:54.112Z,58.83
2023-01-17T17:52:21.404Z,59.63
2023-01-17T17:54:49.275Z,59.95
2023-01-17T17:57:16.567Z,59.91
2023-01-17T17:59:43.881Z,60.04
2023-01-17T18:02:11.885Z,59.54
2023-01-17T18:04:39.248Z,60.14
2023-01-17T18:07:06.611Z,59.97
2023-01-17T18:09:34.059Z,60.20
2023-01-17T18:12:02.841Z,59.96
2023-01-17T18:14:30.243Z,59.90
2023-01-17T18:16:57.593Z,60.19
2023-01-17T18:19:26.503Z,60.78
2023-01-17T18:21:53.983Z,60.28
2023-01-17T18:24:24.073Z,60.81
2023-01-17T18:26:56.841Z,60.97
2023-01-17T18:29:26.939Z,61.49
2023-01-17T18:31:55.060Z,61.91
2023-01-17T18:34:29.038Z,62.27
2023-01-17T18:36:57.343Z,62.51
2023-01-17T18:39:29.730Z,62.78
2023-01-17T18:41:58.005Z,62.77
2023-01-17T18:44:27.346Z,62.97
2023-01-17T18:46:55.188Z,62.41
2023-01-17T18:49:22.664Z,62.70
2023-01-17T18:51:50.960Z,62.98
2023-01-17T18:54:22.128Z,63.38
2023-01-17T18:56:49.635Z,62.85
2023-01-17T18:59:21.440Z,63.37
2023-01-17T19:01:49.804Z,63.59
2023-01-17T19:04:17.497Z,63.63
2023-01-17T19:06:47.917Z,63.30
2023-01-17T19:09:16.721Z,63.13
2023-01-17T19:11:45.130Z,63.39
2023-01-17T19:14:13.213Z,63.86
2023-01-17T19:16:41.887Z,63.56
2023-01-17T19:19:14.272Z,63.37
2023-01-17T19:21:42.183Z,62.96
2023-01-17T19:24:13.024Z,62.88
2023-01-17T19:26:41.821Z,63.13
2023-01-17T19:29:09.312Z,63.43
2023-01-17T19:31:43.649Z,63.62
2023-01-17T19:34:13.896Z,63.69
2023-01-17T19:36:42.447Z,63.91
2023-01-17T19:39:09.923Z,63.48
2023-01-17T19:41:43.733Z,63.47
2023-01-17T19:44:13.771Z,63.19
2023-01-17T19:46:41.874Z,63.16
2023-01-17T19:49:10.550Z,63.23
2023-01-17T19:51:39.655Z,63.10
2023-01-17T19:54:08.274Z,63.81
2023-01-17T19:56:36.035Z,63.87
2023-01-17T19:59:03.740Z,64.46
2023-01-17T20:01:34.033Z,64.10
2023-01-17T20:04:03.465Z,63.97
2023-01-17T20:06:35.637Z,63.96
2023-01-17T20:09:05.277Z,64.01
2023-01-17T20:11:32.989Z,64.17
2023-01-17T20:14:00.681Z,64.25
2023-01-17T20:16:31.003Z,64.07
2023-01-17T20:18:59.525Z,63.64
2023-01-17T20:21:28.588Z,63.48
2023-01-17T20:23:58.886Z,63.87
2023-01-17T20:26:36.359Z,64.57
2023-01-17T20:29:10.566Z,64.89
2023-01-17T20:31:40.662Z,65.18
2023-01-17T20:34:11.529Z,65.56
2023-01-17T20:36:42.084Z,65.68
2023-01-17T20:39:14.271Z,65.99
2023-01-17T20:41:44.832Z,66.63
2023-01-17T20:44:15.541Z,66.46
2023-01-17T20:46:43.681Z,66.27
2023-01-17T20:49:19.369Z,65.69
2023-01-17T20:51:47.575Z,64.99
2023-01-17T20:54:17.693Z,64.77
2023-01-17T20:56:47.509Z,64.95
2023-01-17T20:59:19.179Z,65.12
2023-01-17T21:01:47.049Z,64.87
2023-01-17T21:04:15.169Z,64.63
2023-01-17T21:06:44.184Z,64.94
2023-01-17T21:09:15.077Z,65.27
2023-01-17T21:11:42.903Z,65.16
2023-01-17T21:14:10.314Z,64.72
2023-01-17T21:16:38.138Z,64.90
2023-01-17T21:19:06.097Z,64.68
2023-01-17T21:21:33.491Z,64.73
2023-01-17T21:24:00.971Z,64.76
2023-01-17T21:26:28.976Z,65.27
2023-01-17T21:29:00.117Z,65.20
2023-01-17T21:31:33.508Z,65.33
2023-01-17T21:34:07.189Z,65.75
2023-01-17T21:36:39.133Z,66.18
2023-01-17T21:39:19.100Z,66.35
2023-01-17T21:41:50.669Z,66.36
2023-01-17T21:44:23.374Z,66.72
2023-01-17T21:46:56.391Z,66.86
2023-01-17T21:49:24.556Z,66.91
2023-01-17T21:51:54.919Z,67.06
2023-01-17T21:54:47.413Z,67.05
2023-01-17T21:57:38.919Z,67.37
2023-01-17T22:00:15.801Z,67.47
2023-01-17T22:02:48.168Z,67.58
2023-01-17T22:05:16.907Z,67.78
2023-01-17T22:08:05.070Z,67.47
2023-01-17T22:10:33.181Z,67.43
2023-01-17T22:13:00.704Z,67.67
2023-01-17T22:15:28.060Z,67.77
2023-01-17T22:17:55.712Z,67.93
2023-01-17T22:20:23.343Z,67.55
2023-01-17T22:22:50.667Z,67.67
2023-01-17T22:25:17.961Z,68.23
2023-01-17T22:27:45.560Z,68.35
2023-01-17T22:30:13.430Z,68.67
2023-01-17T22:32:41.112Z,68.64
2023-01-17T22:35:09.467Z,68.64
2023-01-17T22:37:36.729Z,68.90
2023-01-17T22:40:05.911Z,69.59
2023-01-17T22:42:34.595Z,70.34
2023-01-17T22:45:02.129Z,70.27
2023-01-17T22:47:30.157Z,70.20
2023-01-17T22:49:57.508Z,70.98
2023-01-17T22:52:25.210Z,72.16
2023-01-17T22:54:52.834Z,72.63
2023-01-17T22:57:20.162Z,72.63
2023-01-17T22:59:47.692Z,71.64
2023-01-17T23:02:16.545Z,72.04
2023-01-17T23:04:44.889Z,72.09
2023-01-17T23:07:12.255Z,71.84
2023-01-17T23:09:39.566Z,71.77
2023-01-17T23:12:07.295Z,71.75
2023-01-17T23:14:54.792Z,72.37
2023-01-17T23:17:43.092Z,72.25
2023-01-17T23:20:11.553Z,72.46
2023-01-17T23:22:38.802Z,72.31
2023-01-17T23:25:13.114Z,72.35
2023-01-17T23:28:04.111Z,72.28
2023-01-17T23:30:40.278Z,72.09
2023-01-17T23:33:17.023Z,71.91
2023-01-17T23:35:46.391Z,71.73
2023-01-17T23:38:29.469Z,71.85
2023-01-17T23:41:25.856Z,71.77
2023-01-17T23:43:56.153Z,71.89
2023-01-17T23:46:25.963Z,71.74
2023-01-17T23:48:54.816Z,71.68
2023-01-17T23:51:22.389Z,71.77
2023-01-17T23:53:52.121Z,71.80
2023-01-17T23:56:23.162Z,72.02
2023-01-17T23:58:50.800Z,72.09
